Terminal Aerodrome Forecast
Issued by NWS

Home | Current Version | Previous Version | Text Only | Print | Product List | Glossary On
Versions: 1 2 3 4 5 6 7 8 9 10 11 12 13 14
748
FTUS45 KRIW 132339
TAFCPR
TAF
KCPR 132339Z 1400/1424 32018G26KT P6SM VCSH SCT025 BKN050
     FM140130 28011KT P6SM SCT110
     FM140600 24012KT P6SM SCT060 BKN090
     FM141600 24023G30KT P6SM VCSH SCT050 BKN070=

USA.gov is the U.S. government's official web portal to all federal, state and local government web resources and services.